Time;durP1;ratioP1;P1;durP2;ratioP2;P2;SDS_P1;SDS_P2;PMS_P1;PMS_P2;Temp;Humidity;BMP_temperature;BMP_pressure;BME280_temperature;BME280_humidity;BME280_pressure;Samples;Min_cycle;Max_cycle;Signal;HPM_P1;HPM_P2
2022/10/24 00:02:17;;;;;;;10.17;3.23;;;19.90;74.60;;;;;;5031933;28;20231;-90
2022/10/24 00:04:45;;;;;;;13.23;3.53;;;19.90;74.30;;;;;;5016389;28;20201;-89
2022/10/24 00:07:13;;;;;;;10.10;2.40;;;19.90;74.20;;;;;;5021851;28;20208;-91
2022/10/24 00:09:44;;;;;;;7.20;2.53;;;19.90;74.10;;;;;;5036298;28;20738;-91
2022/10/24 00:12:11;;;;;;;6.83;2.50;;;19.90;73.70;;;;;;5021401;28;20212;-93
2022/10/24 00:14:40;;;;;;;7.83;2.63;;;20.00;73.80;;;;;;5019699;28;20388;-92
2022/10/24 00:17:09;;;;;;;7.63;2.77;;;20.10;73.80;;;;;;5019825;28;20232;-90
2022/10/24 00:19:36;;;;;;;8.47;2.67;;;20.10;73.60;;;;;;5012840;28;20649;-88
2022/10/24 00:22:06;;;;;;;8.70;2.47;;;20.10;73.30;;;;;;5013736;28;20591;-94
2022/10/24 00:24:35;;;;;;;15.00;3.73;;;20.10;72.70;;;;;;5026264;28;20748;-92
2022/10/24 00:27:03;;;;;;;7.90;3.07;;;20.20;72.70;;;;;;5033325;28;20747;-92
2022/10/24 00:29:30;;;;;;;9.73;2.83;;;20.20;72.20;;;;;;5025738;28;20231;-89
2022/10/24 00:32:05;;;;;;;16.37;4.30;;;20.20;72.20;;;;;;5022808;28;20273;-93
2022/10/24 00:34:36;;;;;;;9.60;2.57;;;20.20;72.50;;;;;;5014462;28;20259;-93
2022/10/24 00:37:07;;;;;;;11.53;3.47;;;20.20;71.50;;;;;;5016512;28;20222;-93
2022/10/24 00:39:34;;;;;;;9.63;2.90;;;20.20;71.40;;;;;;5017285;28;20254;-89
2022/10/24 00:42:06;;;;;;;7.03;2.37;;;20.20;71.50;;;;;;5035391;28;20193;-92
2022/10/24 00:44:37;;;;;;;9.57;2.63;;;20.20;71.10;;;;;;5023145;28;20646;-90
2022/10/24 00:47:09;;;;;;;9.63;2.70;;;20.30;71.10;;;;;;5031327;28;20216;-90
2022/10/24 00:49:44;;;;;;;9.10;3.10;;;20.20;71.00;;;;;;5020431;28;20210;-89
2022/10/24 00:52:14;;;;;;;7.60;2.53;;;20.20;71.00;;;;;;5013747;28;20221;-90
2022/10/24 00:54:45;;;;;;;9.37;3.03;;;20.20;71.00;;;;;;5016279;28;20201;-90
2022/10/24 00:57:21;;;;;;;14.53;4.30;;;20.20;70.80;;;;;;5011538;28;20948;-89
2022/10/24 00:59:53;;;;;;;11.17;3.57;;;20.20;71.50;;;;;;5026001;28;20224;-90
2022/10/24 01:02:22;;;;;;;10.40;3.13;;;20.20;70.40;;;;;;5025998;28;20271;-91
2022/10/24 01:04:53;;;;;;;9.33;3.23;;;20.20;70.20;;;;;;5021976;28;20244;-90
2022/10/24 01:07:42;;;;;;;10.17;3.40;;;20.20;70.10;;;;;;5013171;28;20231;-92
2022/10/24 01:10:24;;;;;;;7.93;2.30;;;20.10;69.90;;;;;;5014816;28;20652;-90
2022/10/24 01:13:01;;;;;;;7.53;2.77;;;20.10;69.70;;;;;;5020077;28;20201;-95
2022/10/24 01:15:38;;;;;;;8.63;2.77;;;20.10;69.70;;;;;;5016064;28;20278;-89
2022/10/24 01:18:14;;;;;;;15.27;4.30;;;20.20;69.60;;;;;;5014345;28;20209;-91
2022/10/24 01:21:07;;;;;;;9.90;2.70;;;20.10;69.30;;;;;;5035259;28;20216;-90
2022/10/24 01:24:07;;;;;;;9.13;2.03;;;20.10;69.10;;;;;;5029657;28;20229;-91
2022/10/24 01:27:22;;;;;;;5.20;2.07;;;20.20;69.30;;;;;;5016526;28;20201;-91
2022/10/24 01:30:01;;;;;;;10.63;3.27;;;20.10;69.30;;;;;;4955335;28;20215;-91
2022/10/24 01:32:48;;;;;;;10.67;2.90;;;20.10;69.20;;;;;;4954756;28;20204;-91
2022/10/24 01:35:34;;;;;;;13.57;2.87;;;20.10;68.80;;;;;;5011628;28;20258;-93
2022/10/24 01:38:14;;;;;;;9.87;2.77;;;20.10;68.60;;;;;;5032502;28;20250;-92
2022/10/24 01:40:49;;;;;;;12.00;3.27;;;20.10;68.30;;;;;;5023053;28;20235;-90
2022/10/24 01:43:24;;;;;;;8.43;2.70;;;20.10;68.10;;;;;;5006880;28;20239;-91
2022/10/24 01:46:01;;;;;;;8.40;2.30;;;20.10;68.40;;;;;;5017197;28;20229;-90
2022/10/24 01:48:34;;;;;;;16.70;4.80;;;20.00;68.30;;;;;;5020597;28;20225;-94
2022/10/24 01:51:05;;;;;;;8.83;2.63;;;20.10;68.40;;;;;;5027753;28;20205;-93
2022/10/24 01:53:33;;;;;;;13.40;4.33;;;20.00;68.10;;;;;;5032147;28;20244;-94
2022/10/24 01:56:07;;;;;;;8.10;2.57;;;20.00;68.00;;;;;;5025949;28;20202;-91
2022/10/24 01:58:34;;;;;;;9.03;2.60;;;20.00;67.90;;;;;;5022485;28;20211;-91
2022/10/24 02:01:11;;;;;;;7.37;1.97;;;20.00;67.90;;;;;;5009332;28;20624;-95
2022/10/24 02:03:43;;;;;;;8.80;2.53;;;20.00;67.60;;;;;;5031581;28;20669;-94
2022/10/24 02:06:19;;;;;;;8.20;2.50;;;20.00;67.50;;;;;;5031974;28;20205;-94
2022/10/24 02:08:52;;;;;;;11.30;2.50;;;19.90;67.30;;;;;;5039260;28;20204;-94
2022/10/24 02:11:25;;;;;;;9.63;2.40;;;19.90;66.90;;;;;;5040927;28;20266;-93
2022/10/24 02:13:57;;;;;;;9.00;2.30;;;19.80;66.70;;;;;;5043043;28;20197;-89
2022/10/24 02:16:29;;;;;;;9.00;2.57;;;19.80;66.70;;;;;;5026027;28;20209;-91
2022/10/24 02:19:01;;;;;;;6.67;2.50;;;19.80;66.80;;;;;;5037606;28;20201;-94
2022/10/24 02:21:45;;;;;;;8.47;2.73;;;19.80;66.80;;;;;;5026708;28;20288;-92
2022/10/24 02:24:18;;;;;;;14.30;3.53;;;19.80;66.70;;;;;;5029325;28;20227;-93
2022/10/24 02:26:51;;;;;;;15.00;3.27;;;19.80;66.70;;;;;;5022618;28;20595;-93
2022/10/24 02:29:28;;;;;;;12.67;3.20;;;19.70;66.20;;;;;;5033387;28;20201;-92
2022/10/24 02:32:02;;;;;;;14.60;4.03;;;19.70;66.50;;;;;;5018582;28;20698;-90
2022/10/24 02:34:37;;;;;;;11.97;3.17;;;19.70;66.30;;;;;;5026930;28;20205;-90
2022/10/24 02:37:06;;;;;;;13.07;3.93;;;19.70;66.50;;;;;;5037301;28;20204;-91
2022/10/24 02:39:40;;;;;;;12.07;3.20;;;19.70;66.30;;;;;;5039111;28;20200;-92
2022/10/24 02:42:09;;;;;;;13.40;3.93;;;19.60;67.30;;;;;;5036556;28;20205;-89
2022/10/24 02:44:46;;;;;;;11.37;2.93;;;19.60;66.50;;;;;;5028023;28;20222;-92
2022/10/24 02:47:25;;;;;;;12.90;3.77;;;19.50;66.40;;;;;;5020189;28;20211;-92
2022/10/24 02:49:56;;;;;;;11.27;3.13;;;19.60;66.40;;;;;;5020442;28;20623;-93
2022/10/24 02:52:29;;;;;;;12.57;3.10;;;19.50;66.40;;;;;;5017471;28;20205;-90
2022/10/24 02:54:58;;;;;;;10.70;2.73;;;19.50;66.60;;;;;;5027220;28;20211;-91
2022/10/24 02:57:26;;;;;;;8.37;2.77;;;19.50;66.70;;;;;;5034922;28;20571;-91
2022/10/24 02:59:53;;;;;;;11.87;3.00;;;19.50;66.60;;;;;;5028927;28;20246;-90
2022/10/24 03:02:23;;;;;;;6.67;2.57;;;19.50;66.70;;;;;;5022599;28;20209;-94
2022/10/24 03:04:51;;;;;;;14.47;3.00;;;19.50;66.90;;;;;;5018796;28;20205;-92
2022/10/24 03:07:18;;;;;;;10.80;2.97;;;19.50;67.00;;;;;;5028292;28;20204;-90
2022/10/24 03:09:45;;;;;;;10.90;3.03;;;19.50;67.20;;;;;;5043494;28;20259;-96
2022/10/24 03:12:23;;;;;;;12.27;3.60;;;19.50;67.30;;;;;;5032087;28;20239;-88
2022/10/24 03:14:50;;;;;;;10.30;2.97;;;19.50;68.00;;;;;;5026031;28;20291;-90
2022/10/24 03:17:18;;;;;;;10.13;3.67;;;19.50;68.10;;;;;;5016432;28;20256;-92
2022/10/24 03:19:49;;;;;;;10.90;2.83;;;19.50;67.30;;;;;;5025624;28;20243;-89
2022/10/24 03:22:17;;;;;;;9.37;2.97;;;19.50;67.40;;;;;;5035711;28;20241;-93
2022/10/24 03:24:48;;;;;;;14.80;3.33;;;19.50;67.40;;;;;;5045513;28;20243;-91
2022/10/24 03:27:15;;;;;;;12.10;3.10;;;19.50;67.20;;;;;;5036868;28;20287;-91
2022/10/24 03:29:45;;;;;;;11.30;2.80;;;19.50;67.40;;;;;;5009988;28;20316;-91
2022/10/24 03:32:16;;;;;;;8.70;2.73;;;19.50;67.40;;;;;;5027799;28;20706;-94
2022/10/24 03:34:44;;;;;;;13.43;3.57;;;19.50;67.50;;;;;;5034866;28;20283;-91
2022/10/24 03:37:14;;;;;;;11.47;2.83;;;19.50;67.70;;;;;;5030448;28;20215;-92
2022/10/24 03:39:41;;;;;;;10.40;2.73;;;19.50;67.80;;;;;;5018126;28;20275;-90
2022/10/24 03:42:07;;;;;;;8.03;2.87;;;19.60;68.00;;;;;;5037139;28;20224;-91
2022/10/24 03:44:34;;;;;;;11.27;2.50;;;19.50;68.00;;;;;;5035184;28;20622;-91
2022/10/24 03:47:01;;;;;;;12.60;3.43;;;19.60;68.20;;;;;;5039923;28;20204;-90
2022/10/24 03:49:29;;;;;;;10.13;2.97;;;19.50;68.00;;;;;;5026169;28;20279;-91
2022/10/24 03:51:58;;;;;;;9.10;2.23;;;19.50;68.00;;;;;;5017423;28;20245;-91
2022/10/24 03:54:29;;;;;;;8.50;2.43;;;19.50;68.00;;;;;;5021774;28;20265;-89
2022/10/24 03:56:58;;;;;;;16.73;4.53;;;19.50;68.10;;;;;;5018365;28;20239;-91
2022/10/24 03:59:25;;;;;;;19.50;5.20;;;19.50;68.10;;;;;;5023062;28;20205;-91
2022/10/24 04:01:52;;;;;;;16.17;4.53;;;19.50;68.20;;;;;;5032487;28;20233;-90
2022/10/24 04:04:24;;;;;;;12.20;3.83;;;19.50;68.30;;;;;;5004174;28;20240;-91
2022/10/24 04:06:54;;;;;;;19.40;4.97;;;19.50;68.40;;;;;;5021194;28;20259;-90
2022/10/24 04:09:24;;;;;;;8.60;2.93;;;19.50;68.40;;;;;;5024596;28;20197;-92
2022/10/24 04:11:56;;;;;;;11.17;3.20;;;19.50;68.50;;;;;;5028110;28;20205;-93
2022/10/24 04:14:23;;;;;;;9.57;2.53;;;19.60;68.70;;;;;;5013304;28;20254;-93
2022/10/24 04:16:50;;;;;;;13.93;3.73;;;19.60;68.60;;;;;;5024226;28;20212;-91
2022/10/24 04:19:18;;;;;;;11.00;3.27;;;19.60;68.60;;;;;;5010671;28;20646;-92
2022/10/24 04:21:46;;;;;;;11.90;3.30;;;19.60;68.60;;;;;;5011451;28;20229;-91
2022/10/24 04:24:17;;;;;;;11.80;3.17;;;19.50;68.60;;;;;;5027585;28;20227;-92
2022/10/24 04:26:47;;;;;;;11.50;3.43;;;19.50;68.60;;;;;;5020904;28;20633;-91
2022/10/24 04:29:22;;;;;;;14.03;3.20;;;19.50;68.70;;;;;;5024875;28;20791;-93
2022/10/24 04:31:49;;;;;;;9.30;2.70;;;19.60;68.80;;;;;;5018002;28;20307;-91
2022/10/24 04:34:16;;;;;;;8.93;2.73;;;19.60;69.00;;;;;;5022392;28;20210;-90
2022/10/24 04:36:44;;;;;;;14.50;2.93;;;19.60;69.00;;;;;;5012875;28;20213;-91
2022/10/24 04:39:11;;;;;;;12.50;3.00;;;19.60;68.90;;;;;;5023113;28;20201;-94
2022/10/24 04:41:38;;;;;;;9.67;2.63;;;19.50;68.80;;;;;;5040995;28;20289;-93
2022/10/24 04:44:05;;;;;;;17.00;4.67;;;19.50;68.70;;;;;;5029237;28;20205;-92
2022/10/24 04:46:35;;;;;;;8.23;2.83;;;19.60;68.70;;;;;;5025659;28;20205;-91
2022/10/24 04:49:04;;;;;;;10.20;3.33;;;19.60;68.70;;;;;;5026346;28;20266;-96
2022/10/24 04:51:32;;;;;;;11.10;3.10;;;19.60;68.60;;;;;;5030942;28;20204;-92
2022/10/24 04:54:00;;;;;;;10.87;2.60;;;19.60;68.60;;;;;;5011521;28;20251;-90
2022/10/24 04:56:29;;;;;;;12.83;3.50;;;19.50;68.60;;;;;;5026007;28;20203;-93
2022/10/24 04:58:58;;;;;;;9.77;3.40;;;19.50;68.60;;;;;;5029999;28;20211;-93
2022/10/24 05:01:25;;;;;;;22.00;5.87;;;19.50;68.70;;;;;;5016451;28;20253;-92
2022/10/24 05:03:56;;;;;;;11.43;3.70;;;19.50;68.60;;;;;;5023820;28;20220;-93
2022/10/24 05:06:23;;;;;;;9.63;3.27;;;19.50;68.60;;;;;;5028007;28;20209;-91
2022/10/24 05:08:50;;;;;;;11.00;3.00;;;19.50;68.60;;;;;;5014733;28;20197;-94
2022/10/24 05:11:18;;;;;;;9.87;2.63;;;19.50;68.60;;;;;;5029447;28;20653;-94
2022/10/24 05:13:47;;;;;;;16.17;4.77;;;19.50;68.50;;;;;;5028237;28;20210;-92
2022/10/24 05:19:06;;;;;;;9.13;2.63;;;19.40;68.20;;;;;;5023380;28;20216;-93
2022/10/24 05:21:35;;;;;;;5.57;1.93;;;19.40;68.20;;;;;;5030569;28;20239;-91
2022/10/24 05:24:05;;;;;;;11.80;2.80;;;19.40;68.30;;;;;;5039201;28;20643;-92
2022/10/24 05:26:34;;;;;;;7.03;2.40;;;19.40;68.40;;;;;;5028129;28;20209;-91
2022/10/24 05:29:09;;;;;;;7.77;2.07;;;19.30;68.40;;;;;;5026712;28;20200;-92
2022/10/24 05:31:56;;;;;;;11.07;2.30;;;19.30;68.40;;;;;;5025438;28;20197;-93
2022/10/24 05:34:26;;;;;;;12.00;3.50;;;19.30;68.30;;;;;;5026126;28;20197;-93
2022/10/24 05:37:01;;;;;;;7.70;2.00;;;19.30;68.20;;;;;;5037562;28;20205;-94
2022/10/24 05:39:28;;;;;;;9.17;2.83;;;19.30;68.10;;;;;;5025059;28;20205;-92
2022/10/24 05:41:58;;;;;;;9.90;3.23;;;19.30;68.20;;;;;;5029810;28;20237;-96
2022/10/24 05:44:29;;;;;;;13.67;3.87;;;19.30;68.10;;;;;;5018082;28;20232;-93
2022/10/24 05:46:56;;;;;;;9.83;2.97;;;19.20;67.80;;;;;;5015341;28;20213;-91
2022/10/24 05:49:25;;;;;;;8.77;2.93;;;19.20;67.90;;;;;;5022926;28;20736;-90
2022/10/24 05:51:52;;;;;;;8.43;2.83;;;19.20;67.80;;;;;;5041811;28;20205;-91
2022/10/24 05:54:22;;;;;;;15.80;3.87;;;19.10;67.70;;;;;;5023865;28;20213;-95
2022/10/24 05:56:50;;;;;;;16.97;3.97;;;19.10;67.80;;;;;;5016419;28;20607;-91
2022/10/24 05:59:17;;;;;;;10.10;2.80;;;19.10;67.80;;;;;;5016804;28;20674;-91
2022/10/24 06:01:47;;;;;;;9.93;3.10;;;19.10;68.00;;;;;;5016527;28;20232;-90
2022/10/24 06:04:14;;;;;;;15.30;2.67;;;19.10;67.90;;;;;;5028100;28;20209;-94
2022/10/24 06:06:44;;;;;;;11.63;3.50;;;19.10;67.80;;;;;;5021020;28;20214;-92
2022/10/24 06:09:16;;;;;;;9.93;3.23;;;19.10;67.80;;;;;;5025580;28;20695;-94
2022/10/24 06:11:45;;;;;;;7.60;2.20;;;19.10;67.80;;;;;;5020603;28;20817;-94
2022/10/24 06:14:15;;;;;;;10.87;3.17;;;19.10;67.70;;;;;;5033665;28;20213;-93
2022/10/24 06:16:44;;;;;;;15.17;4.03;;;19.10;67.70;;;;;;5016499;28;20205;-94
2022/10/24 06:19:11;;;;;;;11.63;3.60;;;19.00;67.60;;;;;;5018052;28;20209;-92
2022/10/24 06:21:40;;;;;;;9.60;2.60;;;19.10;67.70;;;;;;5014996;28;20245;-92
2022/10/24 06:24:08;;;;;;;14.80;2.70;;;19.10;67.70;;;;;;5019605;28;20263;-95
2022/10/24 06:26:38;;;;;;;11.90;3.67;;;19.00;67.60;;;;;;5024348;28;20206;-96
2022/10/24 06:29:05;;;;;;;13.40;3.57;;;19.00;67.50;;;;;;5030129;28;20610;-92
2022/10/24 06:31:37;;;;;;;14.00;3.93;;;19.00;67.50;;;;;;5028784;28;20220;-92
2022/10/24 06:34:07;;;;;;;13.43;3.80;;;19.00;67.70;;;;;;5022344;28;20209;-94
2022/10/24 06:36:35;;;;;;;19.63;5.27;;;19.00;67.60;;;;;;5021796;28;20327;-93
2022/10/24 06:39:03;;;;;;;12.97;3.23;;;19.00;67.70;;;;;;5047345;28;20287;-91
2022/10/24 06:41:32;;;;;;;9.50;3.10;;;19.00;67.80;;;;;;5049466;28;20250;-93
2022/10/24 06:44:06;;;;;;;8.80;2.27;;;19.00;67.60;;;;;;5040565;28;20204;-96
2022/10/24 06:46:34;;;;;;;16.50;4.63;;;19.00;67.70;;;;;;5043244;28;20216;-94
2022/10/24 06:49:02;;;;;;;10.63;3.00;;;19.00;67.80;;;;;;5045013;28;20211;-95
2022/10/24 06:51:32;;;;;;;12.67;3.17;;;18.90;68.40;;;;;;5043864;28;20200;-94
2022/10/24 06:54:00;;;;;;;10.90;3.13;;;18.90;67.70;;;;;;5040937;28;20355;-94
2022/10/24 06:56:28;;;;;;;12.57;3.77;;;18.90;67.80;;;;;;5040336;28;20258;-94
2022/10/24 06:59:10;;;;;;;13.07;2.87;;;18.90;68.00;;;;;;5046091;28;20197;-94
2022/10/24 07:01:38;;;;;;;12.63;3.77;;;18.90;68.10;;;;;;5030023;28;20223;-95
2022/10/24 07:04:06;;;;;;;9.10;2.50;;;18.90;68.00;;;;;;5025806;28;20228;-92
2022/10/24 07:06:34;;;;;;;9.13;2.57;;;18.80;68.20;;;;;;5027637;28;20199;-94
2022/10/24 07:09:03;;;;;;;10.63;2.83;;;18.80;68.10;;;;;;5024076;28;20287;-93
2022/10/24 07:11:32;;;;;;;9.47;2.73;;;18.90;68.30;;;;;;5032127;28;20200;-94
2022/10/24 07:14:01;;;;;;;13.50;3.70;;;18.90;68.20;;;;;;5043385;28;20761;-95
2022/10/24 07:16:34;;;;;;;7.70;2.47;;;18.90;68.20;;;;;;5031783;28;20247;-93
2022/10/24 07:19:05;;;;;;;15.40;3.63;;;18.90;68.50;;;;;;5043770;28;20205;-94
2022/10/24 07:21:33;;;;;;;7.27;2.33;;;18.90;68.50;;;;;;5043787;28;20236;-96
2022/10/24 07:24:03;;;;;;;10.47;2.80;;;18.90;68.50;;;;;;5043428;28;20233;-93
2022/10/24 07:26:31;;;;;;;16.47;4.67;;;18.90;68.60;;;;;;5043660;28;20274;-92
2022/10/24 07:29:03;;;;;;;11.20;3.30;;;18.80;68.60;;;;;;5041327;28;20207;-95
2022/10/24 07:31:33;;;;;;;18.90;4.80;;;18.90;68.80;;;;;;5044096;28;20662;-94
2022/10/24 07:34:05;;;;;;;17.13;5.13;;;18.90;69.00;;;;;;5042106;28;20219;-93
2022/10/24 07:36:32;;;;;;;14.57;3.27;;;18.90;69.20;;;;;;5045501;28;20203;-93
2022/10/24 07:39:00;;;;;;;13.73;4.10;;;18.90;69.30;;;;;;5035696;28;20582;-93
2022/10/24 07:41:31;;;;;;;23.30;5.93;;;18.90;69.40;;;;;;5036953;28;20207;-95
2022/10/24 07:44:01;;;;;;;18.00;4.40;;;18.90;69.50;;;;;;5036807;28;20239;-93
2022/10/24 07:46:30;;;;;;;21.17;5.60;;;18.90;69.60;;;;;;5040253;28;20195;-93
2022/10/24 07:48:59;;;;;;;20.53;6.47;;;18.90;69.50;;;;;;5035242;28;20208;-94
2022/10/24 07:51:28;;;;;;;9.00;3.03;;;18.90;69.60;;;;;;5028175;28;20611;-92
2022/10/24 07:54:04;;;;;;;10.37;3.10;;;18.90;69.70;;;;;;5026926;28;20212;-94
2022/10/24 07:56:31;;;;;;;11.10;2.50;;;18.90;69.70;;;;;;5030716;28;20214;-92
2022/10/24 07:59:01;;;;;;;10.17;2.97;;;18.90;69.60;;;;;;5031607;28;20259;-93
2022/10/24 08:01:29;;;;;;;13.57;3.67;;;18.90;70.10;;;;;;5037438;28;20314;-90
2022/10/24 08:04:00;;;;;;;9.20;2.77;;;18.90;70.80;;;;;;5035811;28;20732;-92
2022/10/24 08:06:30;;;;;;;17.00;4.13;;;18.90;70.90;;;;;;5034321;28;20211;-92
2022/10/24 08:08:58;;;;;;;11.73;2.90;;;19.00;71.40;;;;;;5036939;28;20274;-93
2022/10/24 08:11:28;;;;;;;13.77;3.27;;;18.90;71.40;;;;;;5040624;28;20196;-95
2022/10/24 08:13:57;;;;;;;14.13;3.10;;;18.90;71.60;;;;;;5034007;28;20564;-95
2022/10/24 08:16:26;;;;;;;12.57;2.97;;;18.90;72.10;;;;;;5031400;28;20258;-94
2022/10/24 08:18:56;;;;;;;11.13;2.87;;;18.90;72.10;;;;;;5014514;28;20224;-93
2022/10/24 08:21:27;;;;;;;7.97;2.80;;;18.80;72.20;;;;;;5019144;28;20275;-91
2022/10/24 08:23:55;;;;;;;11.33;2.90;;;18.80;72.50;;;;;;5033724;28;20231;-93
2022/10/24 08:26:25;;;;;;;9.10;3.00;;;18.80;72.90;;;;;;5026250;28;20724;-93
2022/10/24 08:28:56;;;;;;;14.03;3.63;;;18.80;73.40;;;;;;5013172;28;20670;-95
2022/10/24 08:31:26;;;;;;;12.20;3.63;;;18.70;73.20;;;;;;5019759;28;20207;-91
2022/10/24 08:33:59;;;;;;;7.73;2.40;;;18.70;73.80;;;;;;5032725;28;20309;-92
2022/10/24 08:36:30;;;;;;;11.17;3.20;;;18.70;74.40;;;;;;5020354;28;20213;-94
2022/10/24 08:39:04;;;;;;;12.30;3.47;;;18.60;74.30;;;;;;5012820;28;20234;-94
2022/10/24 08:41:36;;;;;;;13.47;3.23;;;18.60;75.00;;;;;;5022050;28;20236;-94
2022/10/24 08:44:13;;;;;;;13.80;3.77;;;18.50;74.80;;;;;;5041447;28;20581;-91
2022/10/24 08:46:49;;;;;;;14.27;3.67;;;18.50;74.60;;;;;;5040306;28;20209;-92
2022/10/24 08:49:30;;;;;;;13.30;3.43;;;18.40;75.10;;;;;;5038235;28;20302;-92
2022/10/24 08:52:01;;;;;;;14.53;3.30;;;18.40;75.30;;;;;;5039423;28;20206;-92
2022/10/24 08:54:35;;;;;;;11.77;3.67;;;18.40;75.80;;;;;;5038909;28;20213;-92
2022/10/24 08:57:15;;;;;;;8.83;2.93;;;18.30;75.80;;;;;;5038380;28;20675;-93
2022/10/24 08:59:44;;;;;;;10.90;3.33;;;18.40;76.10;;;;;;5042645;28;20205;-95
2022/10/24 09:02:19;;;;;;;17.07;3.20;;;18.30;75.50;;;;;;5040315;28;20308;-95
2022/10/24 09:04:55;;;;;;;11.50;2.97;;;18.30;76.40;;;;;;5040606;28;20217;-93
2022/10/24 09:07:28;;;;;;;17.80;4.50;;;18.30;76.90;;;;;;5038772;28;20727;-93
2022/10/24 09:10:09;;;;;;;8.80;2.80;;;18.20;77.00;;;;;;5042343;28;20804;-95
2022/10/24 09:12:42;;;;;;;15.60;3.83;;;18.20;77.80;;;;;;5037105;28;20668;-94
2022/10/24 09:15:20;;;;;;;11.60;2.83;;;18.20;78.30;;;;;;5041712;28;20654;-93
2022/10/24 09:17:53;;;;;;;13.23;3.67;;;18.10;79.00;;;;;;5043659;28;20572;-95
2022/10/24 09:20:32;;;;;;;10.23;3.10;;;18.10;79.10;;;;;;5042687;28;20710;-91
2022/10/24 09:23:05;;;;;;;13.27;3.33;;;18.10;80.20;;;;;;5041639;28;20272;-93
2022/10/24 09:25:38;;;;;;;10.97;2.90;;;18.10;80.20;;;;;;5044767;28;20620;-95
2022/10/24 09:28:06;;;;;;;11.00;2.70;;;18.00;80.90;;;;;;5028521;28;20208;-93
2022/10/24 09:30:39;;;;;;;11.10;3.00;;;18.00;80.80;;;;;;5015343;28;20299;-92
2022/10/24 09:33:23;;;;;;;9.40;2.80;;;18.00;82.30;;;;;;5035027;28;20210;-94
2022/10/24 09:35:57;;;;;;;13.90;3.73;;;18.00;83.00;;;;;;5035043;28;20244;-93
2022/10/24 09:38:32;;;;;;;9.17;2.70;;;17.90;82.80;;;;;;5018165;28;20227;-95
2022/10/24 09:41:15;;;;;;;12.87;2.93;;;17.90;83.40;;;;;;5016628;28;20239;-93
2022/10/24 09:43:54;;;;;;;8.50;3.00;;;17.90;84.00;;;;;;5015118;28;20232;-94
2022/10/24 09:46:26;;;;;;;12.23;3.33;;;17.90;85.50;;;;;;5015542;28;20232;-93
2022/10/24 09:48:56;;;;;;;10.13;3.13;;;17.90;85.50;;;;;;5016998;28;20201;-93
2022/10/24 09:51:33;;;;;;;9.63;3.00;;;17.90;85.70;;;;;;5018900;28;20217;-93
2022/10/24 09:54:25;;;;;;;10.50;3.03;;;17.90;87.40;;;;;;5017431;28;20701;-94
2022/10/24 09:56:56;;;;;;;12.03;3.40;;;17.90;87.50;;;;;;5028077;28;20205;-93
2022/10/24 09:59:43;;;;;;;16.73;4.47;;;17.80;86.90;;;;;;5022655;28;20210;-92
2022/10/24 10:02:23;;;;;;;11.70;3.67;;;17.80;88.10;;;;;;5019315;28;20239;-93
2022/10/24 10:05:17;;;;;;;16.03;4.23;;;17.80;88.10;;;;;;5031277;28;20279;-90
2022/10/24 10:07:49;;;;;;;13.87;4.13;;;17.80;88.80;;;;;;5025793;28;20206;-93
2022/10/24 10:10:31;;;;;;;18.97;4.40;;;17.90;87.70;;;;;;5035935;28;20202;-95
2022/10/24 10:13:03;;;;;;;14.67;4.30;;;17.80;88.80;;;;;;5032211;28;20213;-91
2022/10/24 10:15:34;;;;;;;11.90;3.70;;;17.80;88.10;;;;;;5030271;28;20232;-91
2022/10/24 10:18:05;;;;;;;11.17;3.50;;;17.80;88.70;;;;;;5029188;28;20215;-93
2022/10/24 10:20:39;;;;;;;16.80;3.83;;;17.80;89.40;;;;;;5019436;28;20575;-92
2022/10/24 10:23:25;;;;;;;14.33;3.90;;;17.90;90.10;;;;;;5008826;28;20260;-91
2022/10/24 10:26:04;;;;;;;14.63;4.40;;;17.90;90.40;;;;;;5019902;28;20223;-93
2022/10/24 10:28:35;;;;;;;14.50;3.93;;;17.90;88.80;;;;;;5011970;28;20314;-92
2022/10/24 10:31:03;;;;;;;12.03;3.13;;;17.90;88.70;;;;;;5012374;28;20286;-92
2022/10/24 10:33:42;;;;;;;16.00;4.23;;;17.90;88.30;;;;;;5022313;28;20266;-93
2022/10/24 10:36:16;;;;;;;12.07;3.03;;;18.00;88.60;;;;;;5020940;28;20210;-91
2022/10/24 10:38:52;;;;;;;10.57;2.93;;;18.00;88.80;;;;;;5031353;28;20202;-92
2022/10/24 10:41:42;;;;;;;16.00;4.47;;;18.00;89.20;;;;;;5033703;28;20215;-93
2022/10/24 10:44:26;;;;;;;10.80;3.00;;;18.00;89.30;;;;;;5033632;28;20252;-92
2022/10/24 10:47:08;;;;;;;12.77;3.43;;;18.00;89.30;;;;;;5013503;28;20574;-93
2022/10/24 10:49:39;;;;;;;14.40;3.93;;;18.00;89.40;;;;;;5031067;28;20215;-94
2022/10/24 10:52:13;;;;;;;11.67;3.70;;;18.00;88.60;;;;;;5020785;28;20212;-91
2022/10/24 10:55:15;;;;;;;9.27;3.20;;;18.00;88.90;;;;;;5012309;28;20215;-91
2022/10/24 10:57:49;;;;;;;11.00;3.67;;;18.10;89.00;;;;;;5023571;28;20301;-92
2022/10/24 11:00:20;;;;;;;17.63;4.00;;;18.10;89.10;;;;;;5015092;28;20224;-90
2022/10/24 11:03:07;;;;;;;16.97;5.00;;;18.10;89.20;;;;;;5011625;28;20737;-91
2022/10/24 11:05:57;;;;;;;11.97;3.33;;;18.10;90.00;;;;;;5041412;28;20219;-93
2022/10/24 11:09:14;;;;;;;13.47;3.43;;;18.10;89.90;;;;;;5019678;28;20201;-93
2022/10/24 11:12:00;;;;;;;9.03;3.13;;;18.20;89.50;;;;;;5011644;28;20695;-93
2022/10/24 11:14:38;;;;;;;8.23;2.67;;;18.20;89.80;;;;;;5011538;28;20239;-95
2022/10/24 11:17:13;;;;;;;11.30;3.00;;;18.20;89.20;;;;;;5027620;28;20200;-93
2022/10/24 11:20:00;;;;;;;15.10;3.70;;;18.30;89.70;;;;;;5036007;28;20223;-94
2022/10/24 11:22:34;;;;;;;11.80;3.60;;;18.30;89.40;;;;;;5017947;28;20243;-94
2022/10/24 11:25:09;;;;;;;13.60;3.57;;;18.40;89.10;;;;;;5024709;28;20204;-93
2022/10/24 11:27:43;;;;;;;12.27;3.43;;;18.50;89.50;;;;;;5021293;28;20263;-94
2022/10/24 11:30:15;;;;;;;9.23;2.93;;;18.50;89.40;;;;;;5024078;28;20219;-94
2022/10/24 11:32:48;;;;;;;11.70;3.40;;;18.50;89.30;;;;;;5029431;28;20231;-93
2022/10/24 11:35:27;;;;;;;11.40;3.33;;;18.50;89.50;;;;;;5014698;28;20204;-93
2022/10/24 11:37:58;;;;;;;10.17;3.27;;;18.60;89.50;;;;;;5014070;28;20228;-92
2022/10/24 11:40:30;;;;;;;11.43;3.47;;;18.70;90.00;;;;;;5016111;28;20240;-94
2022/10/24 11:43:07;;;;;;;10.83;3.10;;;18.70;90.50;;;;;;5034358;28;20241;-93
2022/10/24 11:45:46;;;;;;;13.80;3.67;;;18.80;90.80;;;;;;5027784;28;20209;-94
2022/10/24 11:48:19;;;;;;;6.80;2.60;;;18.90;90.90;;;;;;4998582;28;20822;-92
2022/10/24 11:50:52;;;;;;;8.00;2.20;;;19.00;89.50;;;;;;5016519;28;20208;-96
2022/10/24 11:53:49;;;;;;;12.10;3.80;;;19.20;90.00;;;;;;5032838;28;20207;-93
2022/10/24 11:56:29;;;;;;;9.53;2.93;;;19.40;89.10;;;;;;5031657;28;20219;-93
2022/10/24 11:59:07;;;;;;;11.97;3.60;;;19.60;86.80;;;;;;5041618;28;20200;-93
2022/10/24 12:01:58;;;;;;;11.90;3.53;;;19.90;84.50;;;;;;5048006;28;20587;-94
2022/10/24 12:04:58;;;;;;;9.50;2.73;;;20.00;80.10;;;;;;5021180;28;20235;-93
2022/10/24 12:07:52;;;;;;;14.27;3.67;;;20.30;80.70;;;;;;5017278;28;20209;-95
2022/10/24 12:10:55;;;;;;;12.87;3.53;;;20.50;79.50;;;;;;5016246;28;20214;-92
2022/10/24 12:14:13;;;;;;;10.60;3.00;;;20.60;77.70;;;;;;5013302;28;20268;-94
2022/10/24 12:16:53;;;;;;;14.37;3.53;;;20.80;77.20;;;;;;4966458;28;20227;-89
2022/10/24 12:19:27;;;;;;;8.83;2.67;;;21.00;74.30;;;;;;4964377;28;20213;-94
2022/10/24 12:22:15;;;;;;;10.77;2.37;;;21.10;74.30;;;;;;5004256;28;20304;-96
2022/10/24 12:24:50;;;;;;;8.20;2.87;;;21.10;72.60;;;;;;5018460;28;20244;-95
2022/10/24 12:27:37;;;;;;;8.03;3.10;;;21.20;71.70;;;;;;5014797;28;20244;-94
2022/10/24 12:30:24;;;;;;;11.70;3.70;;;21.30;70.80;;;;;;5016744;28;20717;-93
2022/10/24 12:32:59;;;;;;;12.20;3.23;;;21.30;70.80;;;;;;5024806;28;20206;-92
2022/10/24 12:36:06;;;;;;;7.83;2.43;;;21.30;71.60;;;;;;5046281;28;20193;-92
2022/10/24 12:39:10;;;;;;;6.43;2.13;;;21.40;71.60;;;;;;5043762;28;20237;-93
2022/10/24 12:41:43;;;;;;;5.23;2.03;;;21.40;72.90;;;;;;5032516;28;20215;-94
2022/10/24 12:44:46;;;;;;;5.20;1.80;;;21.50;73.00;;;;;;5024799;28;20228;-95
2022/10/24 12:47:40;;;;;;;11.63;3.43;;;21.50;71.90;;;;;;5023066;28;20209;-93
2022/10/24 12:53:30;;;;;;;18.83;4.90;;;21.60;72.00;;;;;;5030955;28;20203;-95
2022/10/24 12:56:15;;;;;;;6.13;2.30;;;21.60;71.80;;;;;;5032638;28;20254;-94
2022/10/24 12:58:59;;;;;;;8.80;3.17;;;21.60;72.80;;;;;;5020335;28;20229;-94
2022/10/24 13:01:36;;;;;;;11.30;3.80;;;21.60;73.30;;;;;;5032151;28;20208;-92
2022/10/24 13:04:38;;;;;;;10.20;3.27;;;21.60;72.90;;;;;;5019308;28;20232;-93
2022/10/24 13:07:28;;;;;;;8.17;3.07;;;21.60;72.60;;;;;;5012506;28;20213;-94
2022/10/24 13:10:09;;;;;;;13.40;3.37;;;21.60;72.20;;;;;;5010254;28;20213;-92
2022/10/24 13:12:59;;;;;;;10.83;3.37;;;21.60;73.20;;;;;;5022588;28;20259;-94
2022/10/24 13:15:45;;;;;;;8.77;2.93;;;21.60;71.90;;;;;;5019802;28;20260;-93
2022/10/24 13:18:31;;;;;;;12.90;4.50;;;21.70;71.50;;;;;;5015589;28;20285;-93
2022/10/24 13:21:17;;;;;;;12.40;4.23;;;21.70;72.40;;;;;;5030486;28;20200;-93
2022/10/24 13:23:50;;;;;;;16.37;4.20;;;21.70;72.10;;;;;;5050750;28;20243;-94